Time;durP1;ratioP1;P1;durP2;ratioP2;P2;SDS_P1;SDS_P2;PMS_P1;PMS_P2;Temp;Humidity;BMP_temperature;BMP_pressure;BME280_temperature;BME280_humidity;BME280_pressure;Samples;Min_cycle;Max_cycle;Signal;HPM_P1;HPM_P2
2022/08/29 00:00:04;;;;;;;;;;;;;;;;;;1034680;23;19918;-77
2022/08/29 00:01:09;;;;;;;;;;;;;;;;;;1027354;23;19927;-77
2022/08/29 00:01:39;;;;;;;;;;;;;;;;;;1033553;23;19933;-84
2022/08/29 00:02:09;;;;;;;;;;;;;;;;;;1049836;23;19949;-77
2022/08/29 00:02:39;;;;;;;;;;;;;;;;;;1033774;23;19965;-77
2022/08/29 00:03:10;;;;;;;;;;;;;;;;;;1033572;23;20297;-77
2022/08/29 00:03:40;;;;;;;;;;;;;;;;;;1040957;23;19933;-83
2022/08/29 00:04:11;;;;;;;;;;;;;;;;;;1027263;28;19973;-84
2022/08/29 00:04:41;;;;;;;;;;;;;;;;;;1035213;23;19930;-84
2022/08/29 00:05:11;;;;;;;;;;;;;;;;;;1051567;23;20417;-78
2022/08/29 00:05:41;;;;;;;;;;;;;;;;;;1034982;23;19922;-85
2022/08/29 00:07:26;;;;;;;;;;;;;;;;;;1027693;23;19927;-77
2022/08/29 00:07:58;;;;;;;;;;;;;;;;;;1083290;23;19917;-76
2022/08/29 00:09:08;;;;;;;;;;;;;;;;;;1037981;23;20329;-77
2022/08/29 00:09:38;;;;;;;;;;;;;;;;;;1028465;28;19925;-77
2022/08/29 00:10:08;;;;;;;;;;;;;;;;;;1028619;28;20286;-77
2022/08/29 00:10:39;;;;;;;;;;;;;;;;;;1028850;28;19953;-77
2022/08/29 00:11:09;;;;;;;;;;;;;;;;;;1028756;28;19914;-77
2022/08/29 00:11:39;;;;;;;;;;;;;;;;;;1028861;28;20020;-77
2022/08/29 00:12:50;;;;;;;;;;;;;;;;;;1027910;23;20356;-84
2022/08/29 00:15:55;;;;;;;;;;;;;;;;;;1035690;23;19930;-83
2022/08/29 00:16:25;;;;;;;;;;;;;;;;;;1058489;23;20596;-84
2022/08/29 00:16:55;;;;;;;;;;;;;;;;;;1058602;23;19910;-77
2022/08/29 00:17:25;;;;;;;;;;;;;;;;;;1143887;23;19921;-77
2022/08/29 00:17:56;;;;;;;;;;;;;;;;;;1040568;23;19914;-75
2022/08/29 00:18:26;;;;;;;;;;;;;;;;;;1190641;23;19927;-77
2022/08/29 00:18:57;;;;;;;;;;;;;;;;;;1040884;23;19937;-82
2022/08/29 00:19:27;;;;;;;;;;;;;;;;;;1117684;23;19909;-82
2022/08/29 00:20:27;;;;;;;;;;;;;;;;;;1067693;23;19930;-76
2022/08/29 00:20:57;;;;;;;;;;;;;;;;;;1040254;23;19914;-75
2022/08/29 00:21:28;;;;;;;;;;;;;;;;;;1042040;23;20325;-76
2022/08/29 00:21:58;;;;;;;;;;;;;;;;;;1050206;23;19914;-76
2022/08/29 00:22:28;;;;;;;;;;;;;;;;;;1030377;23;19914;-76
2022/08/29 00:22:59;;;;;;;;;;;;;;;;;;1039067;23;19926;-75
2022/08/29 00:23:29;;;;;;;;;;;;;;;;;;1032287;23;20056;-76
2022/08/29 00:24:39;;;;;;;;;;;;;;;;;;1043426;23;20317;-76
2022/08/29 00:25:10;;;;;;;;;;;;;;;;;;1028304;28;20009;-76
2022/08/29 00:25:40;;;;;;;;;;;;;;;;;;1028742;28;20338;-76
2022/08/29 00:26:10;;;;;;;;;;;;;;;;;;1028742;28;19910;-76
2022/08/29 00:26:40;;;;;;;;;;;;;;;;;;1028805;28;20385;-76
2022/08/29 00:27:11;;;;;;;;;;;;;;;;;;1028618;28;19965;-76
2022/08/29 00:27:41;;;;;;;;;;;;;;;;;;1028761;28;20001;-76
2022/08/29 00:28:11;;;;;;;;;;;;;;;;;;1028683;28;20286;-76
2022/08/29 00:28:42;;;;;;;;;;;;;;;;;;1028903;28;19914;-77
2022/08/29 00:29:12;;;;;;;;;;;;;;;;;;1028636;28;19977;-76
2022/08/29 00:29:42;;;;;;;;;;;;;;;;;;1028496;28;19910;-77
2022/08/29 00:30:13;;;;;;;;;;;;;;;;;;1028349;28;20016;-76
2022/08/29 00:30:43;;;;;;;;;;;;;;;;;;1028561;28;19917;-76
2022/08/29 00:31:13;;;;;;;;;;;;;;;;;;1028369;28;19910;-76
2022/08/29 00:31:44;;;;;;;;;;;;;;;;;;1028487;28;19945;-77
2022/08/29 00:32:14;;;;;;;;;;;;;;;;;;1028160;28;19914;-77
2022/08/29 00:32:44;;;;;;;;;;;;;;;;;;1028641;28;19957;-76
2022/08/29 00:33:14;;;;;;;;;;;;;;;;;;1028308;28;20387;-76
2022/08/29 00:33:45;;;;;;;;;;;;;;;;;;1028586;28;19916;-76
2022/08/29 00:34:15;;;;;;;;;;;;;;;;;;1028601;28;20314;-77
2022/08/29 00:34:46;;;;;;;;;;;;;;;;;;1028885;28;20001;-77
2022/08/29 00:35:16;;;;;;;;;;;;;;;;;;1028201;28;19910;-77
2022/08/29 00:35:46;;;;;;;;;;;;;;;;;;1028398;28;19910;-77
2022/08/29 00:36:17;;;;;;;;;;;;;;;;;;1028307;28;20412;-77
2022/08/29 00:36:47;;;;;;;;;;;;;;;;;;1028505;28;19910;-77
2022/08/29 00:37:17;;;;;;;;;;;;;;;;;;1041399;23;20005;-76
2022/08/29 00:37:48;;;;;;;;;;;;;;;;;;1121132;23;19925;-77
2022/08/29 00:39:38;;;;;;;;;;;;;;;;;;1155501;23;20883;-76
2022/08/29 00:42:08;;;;;;;;;;;;;;;;;;1108200;23;19921;-77
2022/08/29 00:42:39;;;;;;;;;;;;;;;;;;1028867;28;19910;-77
2022/08/29 00:43:09;;;;;;;;;;;;;;;;;;1028711;28;20325;-77
2022/08/29 00:43:40;;;;;;;;;;;;;;;;;;1028886;28;20298;-77
2022/08/29 00:44:10;;;;;;;;;;;;;;;;;;1028739;28;19910;-78
2022/08/29 00:44:40;;;;;;;;;;;;;;;;;;1028446;28;19956;-78
2022/08/29 00:45:11;;;;;;;;;;;;;;;;;;1028391;28;19953;-78
2022/08/29 00:45:41;;;;;;;;;;;;;;;;;;1028547;28;19910;-78
2022/08/29 00:46:11;;;;;;;;;;;;;;;;;;1028295;28;19960;-78
2022/08/29 00:46:42;;;;;;;;;;;;;;;;;;1028372;28;19957;-78
2022/08/29 00:47:12;;;;;;;;;;;;;;;;;;1028286;28;19973;-78
2022/08/29 00:47:42;;;;;;;;;;;;;;;;;;1028463;28;20004;-78
2022/08/29 00:48:13;;;;;;;;;;;;;;;;;;1028137;28;20028;-78
2022/08/29 00:48:43;;;;;;;;;;;;;;;;;;1028443;28;19910;-78
2022/08/29 00:49:14;;;;;;;;;;;;;;;;;;1028366;28;20426;-78
2022/08/29 00:49:44;;;;;;;;;;;;;;;;;;1028568;28;20042;-78
2022/08/29 00:50:15;;;;;;;;;;;;;;;;;;1028165;28;19917;-78
2022/08/29 00:50:45;;;;;;;;;;;;;;;;;;1028466;28;20009;-78
2022/08/29 00:51:15;;;;;;;;;;;;;;;;;;1028360;28;19910;-78
2022/08/29 00:51:46;;;;;;;;;;;;;;;;;;1028568;28;20402;-78
2022/08/29 00:52:16;;;;;;;;;;;;;;;;;;1028194;28;19910;-78
2022/08/29 00:52:47;;;;;;;;;;;;;;;;;;1028591;28;19914;-78
2022/08/29 00:53:18;;;;;;;;;;;;;;;;;;1028257;28;19965;-78
2022/08/29 00:53:48;;;;;;;;;;;;;;;;;;1028467;28;20387;-78
2022/08/29 00:54:19;;;;;;;;;;;;;;;;;;1028270;28;19910;-78
2022/08/29 00:54:49;;;;;;;;;;;;;;;;;;1028038;28;20199;-78
2022/08/29 00:55:21;;;;;;;;;;;;;;;;;;1027424;28;20358;-78
2022/08/29 00:55:52;;;;;;;;;;;;;;;;;;1028433;28;19953;-78
2022/08/29 00:56:22;;;;;;;;;;;;;;;;;;1028217;28;20204;-78
2022/08/29 00:56:53;;;;;;;;;;;;;;;;;;1028466;28;19948;-78
2022/08/29 00:57:23;;;;;;;;;;;;;;;;;;1024219;29;20445;-78
2022/08/29 00:57:53;;;;;;;;;;;;;;;;;;1024503;29;20387;-78
2022/08/29 00:58:24;;;;;;;;;;;;;;;;;;1028260;28;19945;-78
2022/08/29 00:58:54;;;;;;;;;;;;;;;;;;1024513;28;19981;-78
2022/08/29 00:59:24;;;;;;;;;;;;;;;;;;1028297;28;20004;-78
2022/08/29 00:59:55;;;;;;;;;;;;;;;;;;1024344;28;19965;-78
2022/08/29 01:00:25;;;;;;;;;;;;;;;;;;1024225;29;20402;-78
2022/08/29 01:00:56;;;;;;;;;;;;;;;;;;1024515;29;19910;-78
2022/08/29 01:01:26;;;;;;;;;;;;;;;;;;1024329;28;19910;-78
2022/08/29 01:01:56;;;;;;;;;;;;;;;;;;1028362;28;20362;-78
2022/08/29 01:02:27;;;;;;;;;;;;;;;;;;1024236;29;19961;-78
2022/08/29 01:02:57;;;;;;;;;;;;;;;;;;1028363;28;20048;-78
2022/08/29 01:03:27;;;;;;;;;;;;;;;;;;1028399;28;19917;-78
2022/08/29 01:03:58;;;;;;;;;;;;;;;;;;1028393;28;19910;-78
2022/08/29 01:04:28;;;;;;;;;;;;;;;;;;1028353;28;19965;-78
2022/08/29 01:04:59;;;;;;;;;;;;;;;;;;1030217;28;20012;-78
2022/08/29 01:05:29;;;;;;;;;;;;;;;;;;1024817;29;20531;-78
2022/08/29 01:05:59;;;;;;;;;;;;;;;;;;1024527;28;19952;-78
2022/08/29 01:06:30;;;;;;;;;;;;;;;;;;1024255;29;20009;-78
2022/08/29 01:07:00;;;;;;;;;;;;;;;;;;1024210;28;19910;-78
2022/08/29 01:07:31;;;;;;;;;;;;;;;;;;1024470;29;20430;-78
2022/08/29 01:08:02;;;;;;;;;;;;;;;;;;1020567;29;19938;-78
2022/08/29 01:08:32;;;;;;;;;;;;;;;;;;1020601;29;19911;-78
2022/08/29 01:09:02;;;;;;;;;;;;;;;;;;1024262;29;19950;-78
2022/08/29 01:09:33;;;;;;;;;;;;;;;;;;1024354;28;20452;-78
2022/08/29 01:10:03;;;;;;;;;;;;;;;;;;1028336;28;19910;-78
2022/08/29 01:12:16;;;;;;;;;;;;;;;;;;1028480;28;20392;-78
2022/08/29 01:12:47;;;;;;;;;;;;;;;;;;1028760;28;20397;-78
2022/08/29 01:13:17;;;;;;;;;;;;;;;;;;1028096;28;19917;-78
2022/08/29 01:13:47;;;;;;;;;;;;;;;;;;1028405;28;19910;-78
2022/08/29 01:14:17;;;;;;;;;;;;;;;;;;1028227;28;19910;-78
2022/08/29 01:14:48;;;;;;;;;;;;;;;;;;1017128;28;20358;-78
2022/08/29 01:15:19;;;;;;;;;;;;;;;;;;1028519;28;19917;-78
2022/08/29 01:15:49;;;;;;;;;;;;;;;;;;1028249;28;19917;-78
2022/08/29 01:16:20;;;;;;;;;;;;;;;;;;1028246;28;19921;-78
2022/08/29 01:16:51;;;;;;;;;;;;;;;;;;1028277;28;19909;-78
2022/08/29 01:17:21;;;;;;;;;;;;;;;;;;1027979;28;19917;-78
2022/08/29 01:17:51;;;;;;;;;;;;;;;;;;1028661;28;19910;-78
2022/08/29 01:18:22;;;;;;;;;;;;;;;;;;1028527;28;19960;-78
2022/08/29 01:18:52;;;;;;;;;;;;;;;;;;1028471;28;19916;-78
2022/08/29 01:19:22;;;;;;;;;;;;;;;;;;1028170;28;19910;-78
2022/08/29 01:19:53;;;;;;;;;;;;;;;;;;1028294;28;20355;-78
2022/08/29 01:20:23;;;;;;;;;;;;;;;;;;1028233;28;20028;-78
2022/08/29 01:20:53;;;;;;;;;;;;;;;;;;1028181;28;19910;-78
2022/08/29 01:21:23;;;;;;;;;;;;;;;;;;1027647;28;19960;-78
2022/08/29 01:21:54;;;;;;;;;;;;;;;;;;1028164;28;20398;-78
2022/08/29 01:22:28;;;;;;;;;;;;;;;;;;1026580;28;19917;-78
2022/08/29 01:22:59;;;;;;;;;;;;;;;;;;1028156;28;19910;-78
2022/08/29 01:23:29;;;;;;;;;;;;;;;;;;1028081;28;20375;-78
2022/08/29 01:24:00;;;;;;;;;;;;;;;;;;1028075;28;19921;-78
2022/08/29 01:24:30;;;;;;;;;;;;;;;;;;1028370;28;19910;-78
2022/08/29 01:25:00;;;;;;;;;;;;;;;;;;1028471;28;20363;-78
2022/08/29 01:25:31;;;;;;;;;;;;;;;;;;1027442;28;20020;-78
2022/08/29 01:26:01;;;;;;;;;;;;;;;;;;1028083;28;19980;-78
2022/08/29 01:26:32;;;;;;;;;;;;;;;;;;1027504;28;20056;-78
2022/08/29 01:27:02;;;;;;;;;;;;;;;;;;1027221;28;19949;-78
2022/08/29 01:27:33;;;;;;;;;;;;;;;;;;1027681;28;20307;-78
2022/08/29 01:28:03;;;;;;;;;;;;;;;;;;1028444;28;20449;-78
2022/08/29 01:28:34;;;;;;;;;;;;;;;;;;1027993;28;20013;-78
2022/08/29 01:29:05;;;;;;;;;;;;;;;;;;1027377;28;20427;-78
2022/08/29 01:29:35;;;;;;;;;;;;;;;;;;1024420;29;19917;-78
2022/08/29 01:30:05;;;;;;;;;;;;;;;;;;1024049;29;20379;-78
2022/08/29 01:30:36;;;;;;;;;;;;;;;;;;1024438;29;19910;-78
2022/08/29 01:31:06;;;;;;;;;;;;;;;;;;1024117;29;19975;-77
2022/08/29 01:31:36;;;;;;;;;;;;;;;;;;1028266;28;19910;-77
2022/08/29 01:32:07;;;;;;;;;;;;;;;;;;1024098;28;19910;-77
2022/08/29 01:32:37;;;;;;;;;;;;;;;;;;1027289;28;19917;-79
2022/08/29 01:33:08;;;;;;;;;;;;;;;;;;1021343;29;20005;-77
2022/08/29 01:33:38;;;;;;;;;;;;;;;;;;1024186;28;19917;-79
2022/08/29 01:34:08;;;;;;;;;;;;;;;;;;1028069;28;19956;-78
2022/08/29 01:34:39;;;;;;;;;;;;;;;;;;1028582;28;20359;-76
2022/08/29 01:35:09;;;;;;;;;;;;;;;;;;1029072;28;20448;-78
2022/08/29 01:35:40;;;;;;;;;;;;;;;;;;1028642;28;19937;-78
2022/08/29 01:36:10;;;;;;;;;;;;;;;;;;1027561;28;20264;-77
2022/08/29 01:36:41;;;;;;;;;;;;;;;;;;1028084;28;19917;-77
2022/08/29 01:37:11;;;;;;;;;;;;;;;;;;1028315;28;19917;-77
2022/08/29 01:37:42;;;;;;;;;;;;;;;;;;1028073;28;19917;-79
2022/08/29 01:38:26;;;;;;;;;;;;;;;;;;1027686;28;19910;-80
2022/08/29 01:38:56;;;;;;;;;;;;;;;;;;1028022;28;19910;-78
2022/08/29 01:39:26;;;;;;;;;;;;;;;;;;1028280;28;19910;-77
2022/08/29 01:39:57;;;;;;;;;;;;;;;;;;1027988;28;19910;-76
2022/08/29 01:40:27;;;;;;;;;;;;;;;;;;1028590;28;19921;-75
2022/08/29 01:40:57;;;;;;;;;;;;;;;;;;1028655;28;19916;-78
2022/08/29 01:41:29;;;;;;;;;;;;;;;;;;1028653;28;19910;-76
2022/08/29 01:41:59;;;;;;;;;;;;;;;;;;1028278;28;19910;-80
2022/08/29 01:42:30;;;;;;;;;;;;;;;;;;1023691;29;19914;-77
2022/08/29 01:43:01;;;;;;;;;;;;;;;;;;1026268;28;19917;-76
2022/08/29 01:43:31;;;;;;;;;;;;;;;;;;1022863;28;19914;-76
2022/08/29 01:44:01;;;;;;;;;;;;;;;;;;1027018;28;19948;-77
2022/08/29 01:44:32;;;;;;;;;;;;;;;;;;1027001;28;19910;-78
2022/08/29 01:45:02;;;;;;;;;;;;;;;;;;1024346;28;19911;-78
2022/08/29 01:45:33;;;;;;;;;;;;;;;;;;1027803;28;19925;-78
2022/08/29 01:46:03;;;;;;;;;;;;;;;;;;1027537;28;19917;-79
2022/08/29 01:46:33;;;;;;;;;;;;;;;;;;1027632;28;19956;-78
2022/08/29 01:47:04;;;;;;;;;;;;;;;;;;1026756;28;20005;-78
2022/08/29 01:47:34;;;;;;;;;;;;;;;;;;1027612;28;19910;-78
2022/08/29 01:48:05;;;;;;;;;;;;;;;;;;1026396;28;20000;-78
2022/08/29 01:48:35;;;;;;;;;;;;;;;;;;1028303;28;19909;-78
2022/08/29 01:49:06;;;;;;;;;;;;;;;;;;1026666;28;20610;-78
2022/08/29 01:49:36;;;;;;;;;;;;;;;;;;1026428;28;19922;-78
2022/08/29 01:50:07;;;;;;;;;;;;;;;;;;1025980;28;20357;-78
2022/08/29 01:50:37;;;;;;;;;;;;;;;;;;1026880;28;20371;-78
2022/08/29 01:51:07;;;;;;;;;;;;;;;;;;1024986;28;19926;-78
2022/08/29 01:51:38;;;;;;;;;;;;;;;;;;1026888;28;19961;-78
2022/08/29 01:52:08;;;;;;;;;;;;;;;;;;1026586;28;19914;-78
2022/08/29 01:52:38;;;;;;;;;;;;;;;;;;1026929;28;19917;-78
2022/08/29 01:53:09;;;;;;;;;;;;;;;;;;1026684;28;19917;-78
2022/08/29 01:53:39;;;;;;;;;;;;;;;;;;1027947;28;20020;-78
2022/08/29 01:54:09;;;;;;;;;;;;;;;;;;1022298;28;19918;-77
2022/08/29 01:54:40;;;;;;;;;;;;;;;;;;1022715;28;20092;-77
2022/08/29 01:55:11;;;;;;;;;;;;;;;;;;1026512;28;19910;-78
2022/08/29 01:55:41;;;;;;;;;;;;;;;;;;1025458;28;19969;-79
2022/08/29 01:56:11;;;;;;;;;;;;;;;;;;1023004;28;20033;-78
2022/08/29 01:56:42;;;;;;;;;;;;;;;;;;1023361;29;19910;-77
2022/08/29 01:57:12;;;;;;;;;;;;;;;;;;1018979;29;20271;-77
2022/08/29 01:57:43;;;;;;;;;;;;;;;;;;1019647;29;19997;-78
2022/08/29 01:58:15;;;;;;;;;;;;;;;;;;1022715;28;19910;-78
2022/08/29 01:58:45;;;;;;;;;;;;;;;;;;1027793;28;19965;-78
2022/08/29 01:59:15;;;;;;;;;;;;;;;;;;1025493;28;20826;-78
2022/08/29 01:59:46;;;;;;;;;;;;;;;;;;1027220;28;19969;-78
2022/08/29 02:00:16;;;;;;;;;;;;;;;;;;1026729;28;19946;-78
2022/08/29 02:00:46;;;;;;;;;;;;;;;;;;1027270;28;20452;-78
2022/08/29 02:01:17;;;;;;;;;;;;;;;;;;1025697;28;19910;-78
2022/08/29 02:01:47;;;;;;;;;;;;;;;;;;1022719;28;19914;-78
2022/08/29 02:02:18;;;;;;;;;;;;;;;;;;1023304;29;19917;-78
2022/08/29 02:02:48;;;;;;;;;;;;;;;;;;1022326;28;20398;-78
2022/08/29 02:03:19;;;;;;;;;;;;;;;;;;1026720;28;19918;-78
2022/08/29 02:03:49;;;;;;;;;;;;;;;;;;1026076;28;20442;-78
2022/08/29 02:04:19;;;;;;;;;;;;;;;;;;1027218;28;19953;-77
2022/08/29 02:04:50;;;;;;;;;;;;;;;;;;1027681;28;20342;-77
2022/08/29 02:05:22;;;;;;;;;;;;;;;;;;1026991;28;19996;-77
2022/08/29 02:05:52;;;;;;;;;;;;;;;;;;1026006;28;19910;-78
2022/08/29 02:06:23;;;;;;;;;;;;;;;;;;1026811;28;20595;-78
2022/08/29 02:06:54;;;;;;;;;;;;;;;;;;1027215;28;20294;-78
2022/08/29 02:07:25;;;;;;;;;;;;;;;;;;1025948;28;20057;-78
2022/08/29 02:07:55;;;;;;;;;;;;;;;;;;1022420;28;19935;-78
2022/08/29 02:08:26;;;;;;;;;;;;;;;;;;1022136;29;19915;-78
2022/08/29 02:08:57;;;;;;;;;;;;;;;;;;1024078;28;19945;-78
2022/08/29 02:09:28;;;;;;;;;;;;;;;;;;1025903;28;19969;-78
2022/08/29 02:09:58;;;;;;;;;;;;;;;;;;1027790;28;19976;-77
2022/08/29 02:10:29;;;;;;;;;;;;;;;;;;1022929;28;19914;-78
2022/08/29 02:10:59;;;;;;;;;;;;;;;;;;1024744;28;19973;-78
2022/08/29 02:11:29;;;;;;;;;;;;;;;;;;1022852;28;19918;-78
2022/08/29 02:12:06;;;;;;;;;;;;;;;;;;1023004;28;20392;-78
2022/08/29 02:12:36;;;;;;;;;;;;;;;;;;1027822;28;19910;-79
2022/08/29 02:13:06;;;;;;;;;;;;;;;;;;1026577;28;20012;-79
2022/08/29 02:13:37;;;;;;;;;;;;;;;;;;1022920;28;19945;-78
2022/08/29 02:14:08;;;;;;;;;;;;;;;;;;1017815;29;19922;-79
2022/08/29 02:14:41;;;;;;;;;;;;;;;;;;1020342;29;19911;-79
2022/08/29 02:15:12;;;;;;;;;;;;;;;;;;1024031;28;19942;-77
2022/08/29 02:15:42;;;;;;;;;;;;;;;;;;1026532;28;19914;-80
2022/08/29 02:16:15;;;;;;;;;;;;;;;;;;1025206;28;20001;-80
2022/08/29 02:17:04;;;;;;;;;;;;;;;;;;1013409;29;20979;-78
2022/08/29 02:17:34;;;;;;;;;;;;;;;;;;1014878;29;19919;-78
2022/08/29 02:18:05;;;;;;;;;;;;;;;;;;1015569;29;20284;-80
2022/08/29 02:18:36;;;;;;;;;;;;;;;;;;1015329;29;19922;-78
2022/08/29 02:19:06;;;;;;;;;;;;;;;;;;1016114;29;19926;-78
2022/08/29 02:19:36;;;;;;;;;;;;;;;;;;1016627;29;19914;-78
2022/08/29 02:20:07;;;;;;;;;;;;;;;;;;1014521;29;19915;-78
2022/08/29 02:20:38;;;;;;;;;;;;;;;;;;1014000;29;19953;-78
2022/08/29 02:21:08;;;;;;;;;;;;;;;;;;1013783;29;19911;-78
2022/08/29 02:21:39;;;;;;;;;;;;;;;;;;1016739;29;19921;-77
2022/08/29 02:22:10;;;;;;;;;;;;;;;;;;1016715;29;20363;-79
2022/08/29 02:22:41;;;;;;;;;;;;;;;;;;1018411;29;19958;-80
2022/08/29 02:23:14;;;;;;;;;;;;;;;;;;1014633;29;20410;-77
2022/08/29 02:23:45;;;;;;;;;;;;;;;;;;1013783;29;19922;-79
2022/08/29 02:24:16;;;;;;;;;;;;;;;;;;1014615;29;19915;-77
2022/08/29 02:24:47;;;;;;;;;;;;;;;;;;1016006;29;19915;-78
2022/08/29 02:26:06;;;;;;;;;;;;;;;;;;1018437;29;19919;-79
2022/08/29 02:26:36;;;;;;;;;;;;;;;;;;1019745;29;19915;-78
2022/08/29 02:27:08;;;;;;;;;;;;;;;;;;1016240;29;20387;-80
2022/08/29 02:27:38;;;;;;;;;;;;;;;;;;1016106;29;19941;-79
2022/08/29 02:28:10;;;;;;;;;;;;;;;;;;1012516;29;19918;-79
2022/08/29 02:28:41;;;;;;;;;;;;;;;;;;1015930;29;19979;-78
2022/08/29 02:29:12;;;;;;;;;;;;;;;;;;1017465;29;19914;-78
2022/08/29 02:29:42;;;;;;;;;;;;;;;;;;1018963;29;19970;-79
2022/08/29 02:30:13;;;;;;;;;;;;;;;;;;1017382;29;20017;-79
2022/08/29 02:30:44;;;;;;;;;;;;;;;;;;1019380;29;19914;-79
2022/08/29 02:31:15;;;;;;;;;;;;;;;;;;1014305;29;20269;-78
2022/08/29 02:31:45;;;;;;;;;;;;;;;;;;1014565;29;19919;-80
2022/08/29 02:32:15;;;;;;;;;;;;;;;;;;1012629;29;20217;-79
2022/08/29 02:32:46;;;;;;;;;;;;;;;;;;1012531;29;19926;-79
2022/08/29 02:33:16;;;;;;;;;;;;;;;;;;1014704;29;19919;-79
2022/08/29 02:33:46;;;;;;;;;;;;;;;;;;1019305;29;20532;-79
2022/08/29 02:34:17;;;;;;;;;;;;;;;;;;1015784;29;20001;-79
2022/08/29 02:34:47;;;;;;;;;;;;;;;;;;1016355;29;20327;-78
2022/08/29 02:35:17;;;;;;;;;;;;;;;;;;1013643;29;19911;-78
2022/08/29 02:35:48;;;;;;;;;;;;;;;;;;1012961;29;19911;-78
2022/08/29 02:36:18;;;;;;;;;;;;;;;;;;1012029;29;19921;-78
2022/08/29 02:36:49;;;;;;;;;;;;;;;;;;1015414;29;19915;-78
2022/08/29 02:37:19;;;;;;;;;;;;;;;;;;1012623;29;19922;-77
2022/08/29 02:37:49;;;;;;;;;;;;;;;;;;1016851;29;19925;-78
2022/08/29 02:38:19;;;;;;;;;;;;;;;;;;1015913;29;19915;-79
2022/08/29 02:38:50;;;;;;;;;;;;;;;;;;1016902;29;19919;-77
2022/08/29 02:39:22;;;;;;;;;;;;;;;;;;1014957;29;21117;-78
2022/08/29 02:39:52;;;;;;;;;;;;;;;;;;1013034;29;20404;-78
2022/08/29 02:40:25;;;;;;;;;;;;;;;;;;1013793;29;19926;-78
2022/08/29 02:40:56;;;;;;;;;;;;;;;;;;1015713;29;19917;-77
2022/08/29 02:41:26;;;;;;;;;;;;;;;;;;1014978;29;19918;-78
2022/08/29 02:41:56;;;;;;;;;;;;;;;;;;1016172;29;20062;-77
2022/08/29 02:42:26;;;;;;;;;;;;;;;;;;1015678;29;19914;-79
2022/08/29 02:42:57;;;;;;;;;;;;;;;;;;1014368;29;19923;-79
2022/08/29 02:43:27;;;;;;;;;;;;;;;;;;1019916;29;19914;-80
2022/08/29 02:43:58;;;;;;;;;;;;;;;;;;1019647;29;19911;-75
2022/08/29 02:44:28;;;;;;;;;;;;;;;;;;1019903;29;20010;-79
2022/08/29 02:45:00;;;;;;;;;;;;;;;;;;1019884;29;19946;-78
2022/08/29 02:45:30;;;;;;;;;;;;;;;;;;1019009;29;19966;-79
2022/08/29 02:46:01;;;;;;;;;;;;;;;;;;1020384;29;19918;-75
2022/08/29 02:46:31;;;;;;;;;;;;;;;;;;1014641;29;19918;-77
2022/08/29 02:47:01;;;;;;;;;;;;;;;;;;1013296;29;19922;-78
2022/08/29 02:47:35;;;;;;;;;;;;;;;;;;1012033;29;20026;-79
2022/08/29 02:48:05;;;;;;;;;;;;;;;;;;1010621;29;19911;-79
2022/08/29 02:48:35;;;;;;;;;;;;;;;;;;1012880;29;19915;-78
2022/08/29 02:49:06;;;;;;;;;;;;;;;;;;1012938;29;19911;-77
2022/08/29 02:49:37;;;;;;;;;;;;;;;;;;1015049;29;20349;-81
2022/08/29 02:50:08;;;;;;;;;;;;;;;;;;1025012;23;19980;-79
2022/08/29 02:50:39;;;;;;;;;;;;;;;;;;1019649;29;19921;-79
2022/08/29 02:51:10;;;;;;;;;;;;;;;;;;1018395;29;19919;-77
2022/08/29 02:51:42;;;;;;;;;;;;;;;;;;1019195;29;19967;-78
2022/08/29 02:52:13;;;;;;;;;;;;;;;;;;1022218;29;20557;-79
2022/08/29 02:52:43;;;;;;;;;;;;;;;;;;1018257;29;19915;-79
2022/08/29 02:53:13;;;;;;;;;;;;;;;;;;1020763;29;20659;-81
2022/08/29 02:53:47;;;;;;;;;;;;;;;;;;1019950;29;19911;-80
2022/08/29 02:54:17;;;;;;;;;;;;;;;;;;1014941;29;19967;-77
2022/08/29 02:54:47;;;;;;;;;;;;;;;;;;1019667;29;19917;-80
2022/08/29 02:55:18;;;;;;;;;;;;;;;;;;1018972;29;19926;-79
2022/08/29 02:55:50;;;;;;;;;;;;;;;;;;1018766;29;19910;-79
2022/08/29 02:56:20;;;;;;;;;;;;;;;;;;1018566;29;19919;-79
2022/08/29 02:56:51;;;;;;;;;;;;;;;;;;1020451;29;19946;-81
2022/08/29 02:57:22;;;;;;;;;;;;;;;;;;1016347;29;19938;-79
2022/08/29 02:57:53;;;;;;;;;;;;;;;;;;1018324;29;20415;-79
2022/08/29 02:58:23;;;;;;;;;;;;;;;;;;1019801;29;19919;-79
2022/08/29 02:58:54;;;;;;;;;;;;;;;;;;1020845;29;20013;-78
2022/08/29 02:59:24;;;;;;;;;;;;;;;;;;1019880;29;19926;-78
2022/08/29 02:59:54;;;;;;;;;;;;;;;;;;1020147;29;19911;-79
2022/08/29 03:00:25;;;;;;;;;;;;;;;;;;1018151;29;19922;-77
2022/08/29 03:00:56;;;;;;;;;;;;;;;;;;1022728;29;19911;-75
2022/08/29 03:01:26;;;;;;;;;;;;;;;;;;1022188;29;20001;-77
2022/08/29 03:01:56;;;;;;;;;;;;;;;;;;1021769;28;20005;-77
2022/08/29 03:02:27;;;;;;;;;;;;;;;;;;1017299;29;19915;-76
2022/08/29 03:02:57;;;;;;;;;;;;;;;;;;1019762;29;19922;-78
2022/08/29 03:03:28;;;;;;;;;;;;;;;;;;1018212;29;19950;-78
2022/08/29 03:03:59;;;;;;;;;;;;;;;;;;1018960;29;19914;-78
2022/08/29 03:04:29;;;;;;;;;;;;;;;;;;1018608;29;19914;-78
2022/08/29 03:05:00;;;;;;;;;;;;;;;;;;1018612;29;19961;-79
2022/08/29 03:05:32;;;;;;;;;;;;;;;;;;1018876;29;19915;-76
2022/08/29 03:06:02;;;;;;;;;;;;;;;;;;1019179;29;19919;-75
2022/08/29 03:06:32;;;;;;;;;;;;;;;;;;1018943;29;19919;-78
2022/08/29 03:07:04;;;;;;;;;;;;;;;;;;1018662;29;19921;-79
2022/08/29 03:07:34;;;;;;;;;;;;;;;;;;1018837;29;19923;-79
2022/08/29 03:08:04;;;;;;;;;;;;;;;;;;1019418;29;20004;-76
2022/08/29 03:08:35;;;;;;;;;;;;;;;;;;1017439;29;19925;-79
2022/08/29 03:09:05;;;;;;;;;;;;;;;;;;1015284;29;19948;-76
2022/08/29 03:09:36;;;;;;;;;;;;;;;;;;1019840;29;20045;-76
2022/08/29 03:10:06;;;;;;;;;;;;;;;;;;1018344;29;19954;-81
2022/08/29 03:10:37;;;;;;;;;;;;;;;;;;1015821;29;19915;-78
2022/08/29 03:11:07;;;;;;;;;;;;;;;;;;1018204;29;19910;-78
2022/08/29 03:11:37;;;;;;;;;;;;;;;;;;1016924;29;20295;-79
2022/08/29 03:12:08;;;;;;;;;;;;;;;;;;1016084;29;19911;-76
2022/08/29 03:12:38;;;;;;;;;;;;;;;;;;1019539;29;19914;-79
2022/08/29 03:13:08;;;;;;;;;;;;;;;;;;1018838;29;20332;-78
2022/08/29 03:13:39;;;;;;;;;;;;;;;;;;1019105;29;20010;-79
2022/08/29 03:14:09;;;;;;;;;;;;;;;;;;1018081;29;19918;-78
2022/08/29 03:14:40;;;;;;;;;;;;;;;;;;1019447;29;19910;-79
2022/08/29 03:15:10;;;;;;;;;;;;;;;;;;1019502;29;20010;-79
2022/08/29 03:15:41;;;;;;;;;;;;;;;;;;1022437;29;19957;-79
2022/08/29 03:16:12;;;;;;;;;;;;;;;;;;1017877;29;19961;-79
2022/08/29 03:16:42;;;;;;;;;;;;;;;;;;1001580;29;20489;-79
2022/08/29 03:17:12;;;;;;;;;;;;;;;;;;1000328;29;20643;-79
2022/08/29 03:17:43;;;;;;;;;;;;;;;;;;1006199;29;20707;-78
2022/08/29 03:18:13;;;;;;;;;;;;;;;;;;1001924;29;20379;-78
2022/08/29 03:18:44;;;;;;;;;;;;;;;;;;1007117;29;19948;-78
2022/08/29 03:19:14;;;;;;;;;;;;;;;;;;1002596;29;19918;-79
2022/08/29 03:19:44;;;;;;;;;;;;;;;;;;1000805;29;20888;-78
2022/08/29 03:20:15;;;;;;;;;;;;;;;;;;1001593;29;20531;-77
2022/08/29 03:20:45;;;;;;;;;;;;;;;;;;1002732;29;19911;-78
2022/08/29 03:21:15;;;;;;;;;;;;;;;;;;1004405;29;20350;-79
2022/08/29 03:21:46;;;;;;;;;;;;;;;;;;1001648;29;19945;-78
2022/08/29 03:22:17;;;;;;;;;;;;;;;;;;1003344;29;20688;-78
2022/08/29 03:22:47;;;;;;;;;;;;;;;;;;1006522;29;19914;-79
2022/08/29 03:23:18;;;;;;;;;;;;;;;;;;1001657;29;19915;-80
2022/08/29 03:23:49;;;;;;;;;;;;;;;;;;1004627;29;20239;-79
2022/08/29 03:24:20;;;;;;;;;;;;;;;;;;1000495;29;20402;-78
2022/08/29 03:24:50;;;;;;;;;;;;;;;;;;1000522;29;20451;-79
2022/08/29 03:25:21;;;;;;;;;;;;;;;;;;1000942;29;19919;-79
2022/08/29 03:25:51;;;;;;;;;;;;;;;;;;999985;29;20049;-77
2022/08/29 03:26:22;;;;;;;;;;;;;;;;;;1001034;29;20244;-78
2022/08/29 03:26:52;;;;;;;;;;;;;;;;;;999456;29;19934;-79
2022/08/29 03:27:23;;;;;;;;;;;;;;;;;;1001678;29;20679;-79
2022/08/29 03:27:53;;;;;;;;;;;;;;;;;;1004165;29;20537;-77
2022/08/29 03:28:24;;;;;;;;;;;;;;;;;;997731;29;20799;-77
2022/08/29 03:28:54;;;;;;;;;;;;;;;;;;1001566;29;19990;-79
2022/08/29 03:29:25;;;;;;;;;;;;;;;;;;1000981;29;19994;-80
2022/08/29 03:29:57;;;;;;;;;;;;;;;;;;1002599;29;19910;-78
2022/08/29 03:30:27;;;;;;;;;;;;;;;;;;1005529;29;20182;-79
2022/08/29 03:30:57;;;;;;;;;;;;;;;;;;1003188;29;19915;-79
2022/08/29 03:31:28;;;;;;;;;;;;;;;;;;1000416;29;19922;-79
2022/08/29 03:31:58;;;;;;;;;;;;;;;;;;1002267;29;20394;-79
2022/08/29 03:32:29;;;;;;;;;;;;;;;;;;1001452;29;20208;-78
2022/08/29 03:33:01;;;;;;;;;;;;;;;;;;1004164;29;20747;-79
2022/08/29 03:33:31;;;;;;;;;;;;;;;;;;1008774;29;19914;-78
2022/08/29 03:34:01;;;;;;;;;;;;;;;;;;1007199;29;20199;-79
2022/08/29 03:34:32;;;;;;;;;;;;;;;;;;1006992;29;20358;-79
2022/08/29 03:35:02;;;;;;;;;;;;;;;;;;1005589;29;20042;-79
2022/08/29 03:35:34;;;;;;;;;;;;;;;;;;1004670;29;19922;-78
2022/08/29 03:36:04;;;;;;;;;;;;;;;;;;1005172;29;20301;-80
2022/08/29 03:36:35;;;;;;;;;;;;;;;;;;1006023;29;20071;-78
2022/08/29 03:37:05;;;;;;;;;;;;;;;;;;1003762;29;20314;-79
2022/08/29 03:37:36;;;;;;;;;;;;;;;;;;1002732;29;20006;-79
2022/08/29 03:38:06;;;;;;;;;;;;;;;;;;1001821;29;19922;-79
2022/08/29 03:38:39;;;;;;;;;;;;;;;;;;1003629;29;20227;-79
2022/08/29 03:39:09;;;;;;;;;;;;;;;;;;1007494;29;19941;-78
2022/08/29 03:39:40;;;;;;;;;;;;;;;;;;1002933;29;19926;-79
2022/08/29 03:40:11;;;;;;;;;;;;;;;;;;1003623;29;20653;-78
2022/08/29 03:40:42;;;;;;;;;;;;;;;;;;1005965;29;20391;-80
2022/08/29 03:41:14;;;;;;;;;;;;;;;;;;1002453;29;20410;-79
2022/08/29 03:41:44;;;;;;;;;;;;;;;;;;1002887;29;19911;-79